createdAt,value
2022-09-10T00:01:53.784Z,3.03
2022-09-10T00:04:22.784Z,2.70
2022-09-10T00:06:51.885Z,3.25
2022-09-10T00:09:21.284Z,2.65
2022-09-10T00:11:50.386Z,3.10
2022-09-10T00:14:21.914Z,3.45
2022-09-10T00:16:51.440Z,3.22
2022-09-10T00:19:22.452Z,3.13
2022-09-10T00:21:51.575Z,2.88
2022-09-10T00:24:22.644Z,3.58
2022-09-10T00:26:54.891Z,3.13
2022-09-10T00:29:23.975Z,2.92
2022-09-10T00:31:53.229Z,2.70
2022-09-10T00:34:23.694Z,2.90
2022-09-10T00:36:52.711Z,2.60
2022-09-10T00:39:21.759Z,2.42
2022-09-10T00:41:52.809Z,2.60
2022-09-10T00:44:58.118Z,2.83
2022-09-10T00:47:30.689Z,2.35
2022-09-10T00:50:06.384Z,2.20
2022-09-10T00:52:39.847Z,3.50
2022-09-10T00:55:11.037Z,2.88
2022-09-10T00:57:41.376Z,2.58
2022-09-10T01:00:13.339Z,3.25
2022-09-10T01:02:44.453Z,2.97
2022-09-10T01:05:17.449Z,2.70
2022-09-10T01:07:48.165Z,2.80
2022-09-10T01:10:21.861Z,3.25
2022-09-10T01:13:16.541Z,2.83
2022-09-10T01:15:52.076Z,2.58
2022-09-10T01:18:30.350Z,2.80
2022-09-10T01:21:15.804Z,3.00
2022-09-10T01:24:06.743Z,3.08
2022-09-10T01:27:23.869Z,2.80
2022-09-10T01:30:00.295Z,3.13
2022-09-10T01:32:34.355Z,3.22
2022-09-10T01:35:14.611Z,2.75
2022-09-10T01:37:48.149Z,2.50
2022-09-10T01:40:18.906Z,2.70
2022-09-10T01:42:49.994Z,2.55
2022-09-10T01:45:20.463Z,2.50
2022-09-10T01:48:06.309Z,3.03
2022-09-10T01:50:48.202Z,2.80
2022-09-10T01:53:34.704Z,3.20
2022-09-10T01:56:18.415Z,3.55
2022-09-10T01:58:48.610Z,3.17
2022-09-10T02:01:46.378Z,3.67
2022-09-10T02:04:17.239Z,3.67
2022-09-10T02:06:51.293Z,2.83
2022-09-10T02:09:21.196Z,2.88
2022-09-10T02:11:53.913Z,3.15
2022-09-10T02:14:50.417Z,3.20
2022-09-10T02:17:37.465Z,3.10
2022-09-10T02:20:10.644Z,2.85
2022-09-10T02:22:41.665Z,3.13
2022-09-10T02:25:11.271Z,3.65
2022-09-10T02:27:43.667Z,3.00
2022-09-10T02:30:13.388Z,3.60
2022-09-10T02:32:44.005Z,3.05
2022-09-10T02:35:15.726Z,2.60
2022-09-10T02:37:47.946Z,3.40
2022-09-10T02:40:19.125Z,3.00
2022-09-10T02:42:48.414Z,3.53
2022-09-10T02:45:23.176Z,3.00
2022-09-10T02:47:54.527Z,3.33
2022-09-10T02:50:24.471Z,3.90
2022-09-10T02:52:53.879Z,3.60
2022-09-10T02:55:22.967Z,3.55
2022-09-10T02:57:52.074Z,3.75
2022-09-10T03:00:21.548Z,3.00
2022-09-10T03:02:50.752Z,3.42
2022-09-10T03:05:21.244Z,3.25
2022-09-10T03:07:51.020Z,3.23
2022-09-10T03:10:20.521Z,3.15
2022-09-10T03:12:49.528Z,2.60
2022-09-10T03:15:20.691Z,2.95
2022-09-10T03:17:49.775Z,2.90
2022-09-10T03:20:23.055Z,2.88
2022-09-10T03:22:52.573Z,2.53
2022-09-10T03:25:22.851Z,2.60
2022-09-10T03:27:52.446Z,2.92
2022-09-10T03:30:21.939Z,3.15
2022-09-10T03:32:51.155Z,3.30
2022-09-10T03:35:22.440Z,3.28
2022-09-10T03:37:51.543Z,3.28
2022-09-10T03:40:20.580Z,3.20
2022-09-10T03:42:49.627Z,3.45
2022-09-10T03:45:18.823Z,3.30
2022-09-10T03:47:48.078Z,3.28
2022-09-10T03:50:17.482Z,3.65
2022-09-10T03:52:48.098Z,2.60
2022-09-10T03:55:18.046Z,3.10
2022-09-10T03:57:48.012Z,3.20
2022-09-10T04:00:17.811Z,2.92
2022-09-10T04:02:48.347Z,2.92
2022-09-10T04:05:17.700Z,2.80
2022-09-10T04:07:48.140Z,3.17
2022-09-10T04:10:17.340Z,2.83
2022-09-10T04:12:46.546Z,2.95
2022-09-10T04:15:15.944Z,2.78
2022-09-10T04:17:51.452Z,2.92
2022-09-10T04:20:23.598Z,2.63
2022-09-10T04:22:57.802Z,3.40
2022-09-10T04:25:28.905Z,3.17
2022-09-10T04:27:59.024Z,2.85
2022-09-10T04:30:30.290Z,3.00
2022-09-10T04:35:28.176Z,3.35
2022-09-10T04:37:58.740Z,3.55
2022-09-10T04:40:28.393Z,3.20
2022-09-10T04:42:57.448Z,3.50
2022-09-10T04:45:26.877Z,3.30
2022-09-10T04:47:56.650Z,2.53
2022-09-10T04:50:25.774Z,2.80
2022-09-10T04:53:14.997Z,3.25
2022-09-10T04:55:46.841Z,3.22
2022-09-10T04:58:16.223Z,2.92
2022-09-10T05:00:47.172Z,3.10
2022-09-10T05:03:16.221Z,3.30
2022-09-10T05:05:48.076Z,3.30
2022-09-10T05:08:18.784Z,3.63
2022-09-10T05:10:53.933Z,3.13
2022-09-10T05:13:24.300Z,3.40
2022-09-10T05:15:53.489Z,3.42
2022-09-10T05:18:23.763Z,3.20
2022-09-10T05:20:53.277Z,3.28
2022-09-10T05:23:24.338Z,2.88
2022-09-10T05:25:56.804Z,3.40
2022-09-10T05:28:26.001Z,3.33
2022-09-10T05:30:55.085Z,3.85
2022-09-10T05:33:26.275Z,3.60
2022-09-10T05:35:55.350Z,3.53
2022-09-10T05:38:26.646Z,4.10
2022-09-10T05:40:57.164Z,4.13
2022-09-10T05:43:27.088Z,3.60
2022-09-10T05:45:57.985Z,3.47
2022-09-10T05:48:27.247Z,3.50
2022-09-10T05:50:56.331Z,3.00
2022-09-10T05:53:27.151Z,3.88
2022-09-10T05:55:59.300Z,3.40
2022-09-10T05:58:30.208Z,3.95
2022-09-10T06:01:00.218Z,3.20
2022-09-10T06:03:29.401Z,3.42
2022-09-10T06:06:02.462Z,3.47
2022-09-10T06:08:36.971Z,3.17
2022-09-10T06:11:13.495Z,3.53
2022-09-10T06:13:46.816Z,3.40
2022-09-10T06:16:16.788Z,3.10
2022-09-10T06:18:47.257Z,3.50
2022-09-10T06:21:23.915Z,3.35
2022-09-10T06:23:56.864Z,3.88
2022-09-10T06:26:31.029Z,4.50
2022-09-10T06:29:05.253Z,4.57
2022-09-10T06:31:36.160Z,4.70
2022-09-10T06:34:05.689Z,4.32
2022-09-10T06:36:35.459Z,4.78
2022-09-10T06:39:07.286Z,4.30
2022-09-10T06:41:49.953Z,4.40
2022-09-10T06:48:34.722Z,4.45
2022-09-10T06:50:52.192Z,3.58
2022-09-10T06:53:22.822Z,4.30
2022-09-10T06:55:54.146Z,4.50
2022-09-10T06:58:25.693Z,4.00
2022-09-10T07:00:56.161Z,4.13
2022-09-10T07:03:26.124Z,4.07
2022-09-10T07:05:56.100Z,3.70
2022-09-10T07:08:29.366Z,4.05
2022-09-10T07:11:04.872Z,3.85
2022-09-10T07:13:34.030Z,4.22
2022-09-10T07:16:04.002Z,3.83
2022-09-10T07:18:34.598Z,4.30
2022-09-10T07:21:09.213Z,3.83
2022-09-10T07:23:45.481Z,4.28
2022-09-10T07:26:17.630Z,4.53
2022-09-10T07:28:50.579Z,4.32
2022-09-10T07:31:22.860Z,4.32
2022-09-10T07:33:52.984Z,4.22
2022-09-10T07:36:23.024Z,4.13
2022-09-10T07:38:54.339Z,5.10
2022-09-10T07:44:01.127Z,4.70
2022-09-10T07:46:35.674Z,3.80
2022-09-10T07:49:05.786Z,4.10
2022-09-10T07:51:36.033Z,3.72
2022-09-10T07:54:05.509Z,4.65
2022-09-10T07:56:49.248Z,3.78
2022-09-10T07:59:18.626Z,4.40
2022-09-10T08:01:52.543Z,4.15
2022-09-10T08:04:23.576Z,4.57
2022-09-10T08:06:54.690Z,4.60
2022-09-10T08:09:24.287Z,4.60
2022-09-10T08:11:58.208Z,4.07
2022-09-10T08:16:58.302Z,4.30
2022-09-10T08:19:27.644Z,4.40
2022-09-10T08:21:57.354Z,5.25
2022-09-10T08:24:32.612Z,3.90
2022-09-10T08:27:03.991Z,3.95
2022-09-10T08:29:35.085Z,4.22
2022-09-10T08:32:05.191Z,4.10
2022-09-10T08:34:35.153Z,5.70
2022-09-10T08:37:10.524Z,5.28
2022-09-10T08:39:40.917Z,5.60
2022-09-10T08:42:17.770Z,4.75
2022-09-10T08:44:52.109Z,4.55
2022-09-10T08:47:33.496Z,4.85
2022-09-10T08:50:16.509Z,4.93
2022-09-10T08:52:49.396Z,4.50
2022-09-10T08:55:32.852Z,4.20
2022-09-10T08:58:13.368Z,3.72
2022-09-10T09:00:45.438Z,4.43
2022-09-10T09:03:26.362Z,3.97
2022-09-10T09:05:59.513Z,4.38
2022-09-10T09:08:41.344Z,4.20
2022-09-10T09:11:23.062Z,3.78
2022-09-10T09:14:10.318Z,3.95
2022-09-10T09:17:01.906Z,3.95
2022-09-10T09:19:34.504Z,2.95
2022-09-10T09:22:13.226Z,3.55
2022-09-10T09:24:50.080Z,3.47
2022-09-10T09:27:21.254Z,3.05
2022-09-10T09:30:01.487Z,3.13
2022-09-10T09:32:37.005Z,3.20
2022-09-10T09:35:18.963Z,3.45
2022-09-10T09:37:48.766Z,3.40
2022-09-10T09:40:29.031Z,3.05
2022-09-10T09:43:02.327Z,3.10
2022-09-10T09:45:37.814Z,2.78
2022-09-10T09:48:08.670Z,2.90
2022-09-10T09:50:42.897Z,2.72
2022-09-10T09:53:23.004Z,2.63
2022-09-10T09:55:55.686Z,2.20
2022-09-10T09:58:30.419Z,2.70
2022-09-10T10:01:25.756Z,2.63
2022-09-10T10:03:58.865Z,2.38
2022-09-10T10:06:30.848Z,2.30
2022-09-10T10:09:03.610Z,2.50
2022-09-10T10:11:49.898Z,2.53
2022-09-10T10:14:41.577Z,2.10
2022-09-10T10:17:30.950Z,2.50
2022-09-10T10:20:04.544Z,2.50
2022-09-10T10:22:33.766Z,2.60
2022-09-10T10:25:05.189Z,2.70
2022-09-10T10:30:08.603Z,2.00
2022-09-10T10:32:45.271Z,1.80
2022-09-10T10:35:34.276Z,1.83
2022-09-10T10:38:30.292Z,1.85
2022-09-10T10:41:31.755Z,1.60
2022-09-10T10:44:26.465Z,1.70
2022-09-10T10:47:05.427Z,1.85
2022-09-10T10:49:49.417Z,1.75
2022-09-10T10:52:28.608Z,1.40
2022-09-10T10:55:08.047Z,2.10
2022-09-10T10:57:54.544Z,1.88
2022-09-10T11:00:24.745Z,1.60
2022-09-10T11:03:03.168Z,1.60
2022-09-10T11:05:38.637Z,1.60
2022-09-10T11:08:13.150Z,1.60
2022-09-10T11:10:47.571Z,1.70
2022-09-10T11:13:23.197Z,1.58
2022-09-10T11:15:59.542Z,1.98
2022-09-10T11:18:34.062Z,2.05
2022-09-10T11:21:11.842Z,1.50
2022-09-10T11:23:46.377Z,1.95
2022-09-10T11:26:23.165Z,1.50
2022-09-10T11:29:00.601Z,1.85
2022-09-10T11:31:35.321Z,1.70
2022-09-10T11:34:07.041Z,1.85
2022-09-10T11:36:44.214Z,1.98
2022-09-10T11:39:20.343Z,1.88
2022-09-10T11:41:52.643Z,2.05
2022-09-10T11:44:49.244Z,1.63
2022-09-10T11:47:22.614Z,1.95
2022-09-10T11:49:58.191Z,1.80
2022-09-10T11:52:30.213Z,1.83
2022-09-10T11:54:59.884Z,1.65
2022-09-10T11:57:37.060Z,1.70
2022-09-10T12:00:12.158Z,1.73
2022-09-10T12:03:16.538Z,1.80
2022-09-10T12:06:00.782Z,1.70
2022-09-10T12:08:45.236Z,1.73
2022-09-10T12:11:21.933Z,1.63
2022-09-10T12:13:52.421Z,1.50
2022-09-10T12:16:32.233Z,1.67
2022-09-10T12:19:02.627Z,2.15
2022-09-10T12:21:34.748Z,1.90
2022-09-10T12:24:08.069Z,2.25
2022-09-10T12:26:44.092Z,1.67
2022-09-10T12:29:29.674Z,2.13
2022-09-10T12:32:29.748Z,1.70
2022-09-10T12:35:47.473Z,1.85
2022-09-10T12:38:48.960Z,2.22
2022-09-10T12:41:55.546Z,1.98
2022-09-10T12:44:56.509Z,2.03
2022-09-10T12:47:50.490Z,2.10
2022-09-10T12:50:30.770Z,1.83
2022-09-10T12:53:31.028Z,2.08
2022-09-10T12:56:05.791Z,1.73
2022-09-10T12:58:54.378Z,2.13
2022-09-10T13:01:40.252Z,1.90
2022-09-10T13:04:27.085Z,1.65
2022-09-10T13:06:59.708Z,1.90
2022-09-10T13:09:32.348Z,2.00
2022-09-10T13:12:05.285Z,1.92
2022-09-10T13:14:38.690Z,1.73
2022-09-10T13:17:41.235Z,1.83
2022-09-10T13:20:15.963Z,1.77
2022-09-10T13:23:04.258Z,2.55
2022-09-10T13:25:36.960Z,1.75
2022-09-10T13:28:53.106Z,1.73
2022-09-10T13:31:26.140Z,1.88
2022-09-10T13:34:28.276Z,1.90
2022-09-10T13:37:23.474Z,1.85
2022-09-10T13:40:43.082Z,1.73
2022-09-10T13:43:25.816Z,1.80
2022-09-10T13:45:59.739Z,2.67
2022-09-10T13:48:32.705Z,2.90
2022-09-10T13:51:15.929Z,1.77
2022-09-10T13:53:49.098Z,1.98
2022-09-10T13:56:24.056Z,1.80
2022-09-10T13:58:56.054Z,2.00
2022-09-10T14:01:49.756Z,2.10
2022-09-10T14:04:27.397Z,2.20
2022-09-10T14:07:03.177Z,2.10
2022-09-10T14:09:33.173Z,2.38
2022-09-10T14:12:07.953Z,2.00
2022-09-10T14:14:40.365Z,2.08
2022-09-10T14:17:13.682Z,2.08
2022-09-10T14:19:47.818Z,2.13
2022-09-10T14:22:22.352Z,2.10
2022-09-10T14:24:53.789Z,2.30
2022-09-10T14:29:57.449Z,2.83
2022-09-10T14:32:32.823Z,2.28
2022-09-10T14:35:38.294Z,1.90
2022-09-10T14:38:25.613Z,2.55
2022-09-10T14:40:59.057Z,2.53
2022-09-10T14:43:34.056Z,2.22
2022-09-10T14:46:04.708Z,1.98
2022-09-10T14:48:37.082Z,1.95
2022-09-10T14:51:18.051Z,2.55
2022-09-10T14:53:52.205Z,2.47
2022-09-10T14:56:26.744Z,2.75
2022-09-10T14:59:01.744Z,2.50
2022-09-10T15:01:31.663Z,2.17
2022-09-10T15:04:00.913Z,2.20
2022-09-10T15:06:31.792Z,2.30
2022-09-10T15:09:02.218Z,2.58
2022-09-10T15:11:31.362Z,2.20
2022-09-10T15:14:00.958Z,2.08
2022-09-10T15:16:30.979Z,1.90
2022-09-10T15:19:00.619Z,2.15
2022-09-10T15:21:30.976Z,2.40
2022-09-10T15:24:01.452Z,2.30
2022-09-10T15:26:31.284Z,1.87
2022-09-10T15:29:00.444Z,2.20
2022-09-10T15:31:32.598Z,2.47
2022-09-10T15:34:02.086Z,2.38
2022-09-10T15:36:31.199Z,2.40
2022-09-10T15:39:01.640Z,2.05
2022-09-10T15:41:31.074Z,2.00
2022-09-10T15:44:02.869Z,2.40
2022-09-10T15:46:31.935Z,2.20
2022-09-10T15:49:01.071Z,1.88
2022-09-10T15:51:30.535Z,1.73
2022-09-10T15:54:04.928Z,1.80
2022-09-10T15:56:36.697Z,2.92
2022-09-10T16:01:38.432Z,2.20
2022-09-10T16:04:07.772Z,1.92
2022-09-10T16:06:39.296Z,1.90
2022-09-10T16:09:11.645Z,2.08
2022-09-10T16:11:42.998Z,1.92
2022-09-10T16:16:42.170Z,2.17
2022-09-10T16:19:12.992Z,2.30
2022-09-10T16:21:43.635Z,2.30
2022-09-10T16:24:14.178Z,2.60
2022-09-10T16:26:45.485Z,2.30
2022-09-10T16:31:45.517Z,2.03
2022-09-10T16:34:17.623Z,2.63
2022-09-10T16:36:48.919Z,2.10
2022-09-10T16:39:20.660Z,2.15
2022-09-10T16:41:50.840Z,2.40
2022-09-10T16:44:20.262Z,2.00
2022-09-10T16:46:49.947Z,2.17
2022-09-10T16:49:20.107Z,2.10
2022-09-10T16:51:50.234Z,2.05
2022-09-10T16:54:21.396Z,2.17
2022-09-10T16:56:50.692Z,2.22
2022-09-10T16:59:21.889Z,2.30
2022-09-10T17:04:28.291Z,1.85
2022-09-10T17:06:58.126Z,1.83
2022-09-10T17:09:28.748Z,2.17
2022-09-10T17:11:57.787Z,2.10
2022-09-10T17:14:27.239Z,2.22
2022-09-10T17:44:18.361Z,2.33
2022-09-10T17:46:47.812Z,2.28
2022-09-10T17:49:18.020Z,2.30
2022-09-10T17:51:47.550Z,2.20
2022-09-10T17:54:16.530Z,1.90
2022-09-10T17:56:45.984Z,1.70
2022-09-10T17:59:15.422Z,2.10
2022-09-10T18:01:45.969Z,2.22
2022-09-10T18:04:16.054Z,2.20
2022-09-10T18:06:48.925Z,2.78
2022-09-10T18:09:21.823Z,2.90
2022-09-10T18:11:51.011Z,2.80
2022-09-10T18:14:24.300Z,2.55
2022-09-10T18:16:55.878Z,2.10
2022-09-10T18:19:25.636Z,2.33
2022-09-10T18:21:55.248Z,2.42
2022-09-10T18:24:25.074Z,3.47
2022-09-10T18:26:55.308Z,2.90
2022-09-10T18:29:30.344Z,3.25
2022-09-10T18:32:02.034Z,2.70
2022-09-10T18:37:02.361Z,2.78
2022-09-10T18:39:32.963Z,3.25
2022-09-10T18:42:02.879Z,3.53
2022-09-10T18:44:34.320Z,3.22
2022-09-10T18:47:17.761Z,2.80
2022-09-10T18:49:56.551Z,2.50
2022-09-10T18:52:26.521Z,2.72
2022-09-10T18:54:55.670Z,2.40
2022-09-10T18:57:24.675Z,2.70
2022-09-10T18:59:55.204Z,3.00
2022-09-10T19:02:25.826Z,3.35
2022-09-10T19:05:10.851Z,3.20
2022-09-10T19:07:40.613Z,3.08
2022-09-10T19:10:09.985Z,2.40
2022-09-10T19:12:39.083Z,2.20
2022-09-10T19:15:09.664Z,2.97
2022-09-10T19:17:40.389Z,2.50
2022-09-10T19:20:10.701Z,2.83
2022-09-10T19:22:39.755Z,2.75
2022-09-10T19:25:09.455Z,3.40
2022-09-10T19:27:38.871Z,4.32
2022-09-10T19:30:09.023Z,4.40
2022-09-10T19:32:39.700Z,3.30
2022-09-10T19:35:11.388Z,3.47
2022-09-10T19:37:41.444Z,3.70
2022-09-10T19:40:12.003Z,3.50
2022-09-10T19:42:41.155Z,3.55
2022-09-10T19:45:11.184Z,4.57
2022-09-10T19:47:43.150Z,4.10
2022-09-10T19:50:12.394Z,3.70
2022-09-10T19:52:41.457Z,4.10
2022-09-10T19:55:13.045Z,3.70
2022-09-10T19:57:42.256Z,4.00
2022-09-10T20:00:30.118Z,4.18
2022-09-10T20:03:03.351Z,5.70
2022-09-10T20:05:34.127Z,5.40
2022-09-10T20:08:04.141Z,4.38
2022-09-10T20:10:33.636Z,4.30
2022-09-10T20:13:02.638Z,4.30
2022-09-10T20:15:32.265Z,4.20
2022-09-10T20:18:03.918Z,4.20
2022-09-10T20:20:33.079Z,4.10
2022-09-10T20:23:02.486Z,4.63
2022-09-10T20:25:32.058Z,4.03
2022-09-10T20:28:01.783Z,4.80
2022-09-10T20:30:31.042Z,4.93
2022-09-10T20:33:01.481Z,4.45
2022-09-10T20:35:32.763Z,4.57
2022-09-10T20:38:02.045Z,4.20
2022-09-10T20:40:31.201Z,4.53
2022-09-10T20:43:00.868Z,4.68
2022-09-10T20:45:32.440Z,5.55
2022-09-10T20:48:02.945Z,4.40
2022-09-10T20:50:33.516Z,4.68
2022-09-10T20:53:02.641Z,4.65
2022-09-10T20:55:31.917Z,4.63
2022-09-10T20:58:01.566Z,4.25
2022-09-10T21:00:30.719Z,4.35
2022-09-10T21:02:59.912Z,4.43
2022-09-10T21:05:29.435Z,4.35
2022-09-10T21:08:00.266Z,4.00
2022-09-10T21:10:29.659Z,4.18
2022-09-10T21:12:58.890Z,4.18
2022-09-10T21:15:30.084Z,3.60
2022-09-10T21:17:59.524Z,3.92
2022-09-10T21:20:28.566Z,3.65
2022-09-10T21:22:59.206Z,3.42
2022-09-10T21:25:29.424Z,3.50
2022-09-10T21:27:58.709Z,4.22
2022-09-10T21:30:27.808Z,3.78
2022-09-10T21:32:56.826Z,3.72
2022-09-10T21:35:26.510Z,4.15
2022-09-10T21:37:55.648Z,6.53
2022-09-10T21:40:26.132Z,7.53
2022-09-10T21:42:55.678Z,5.05
2022-09-10T21:45:26.326Z,4.60
2022-09-10T21:47:55.658Z,4.50
2022-09-10T21:50:25.023Z,4.30
2022-09-10T21:52:54.067Z,4.97
2022-09-10T21:55:23.375Z,5.18
2022-09-10T21:57:53.973Z,4.60
2022-09-10T22:00:25.433Z,4.88
2022-09-10T22:05:24.199Z,4.45
2022-09-10T22:07:53.229Z,4.55
2022-09-10T22:10:22.244Z,4.78
2022-09-10T22:12:51.309Z,4.70
2022-09-10T22:15:21.725Z,4.13
2022-09-10T22:17:50.963Z,3.87
2022-09-10T22:20:19.932Z,3.92
2022-09-10T22:22:49.368Z,4.05
2022-09-10T22:25:18.564Z,4.40
2022-09-10T22:27:49.525Z,4.05
2022-09-10T22:30:18.745Z,4.82
2022-09-10T22:32:49.170Z,6.13
2022-09-10T22:35:18.748Z,5.67
2022-09-10T22:37:47.760Z,5.40
2022-09-10T22:40:17.172Z,5.88
2022-09-10T22:42:46.739Z,6.43
2022-09-10T22:45:16.087Z,5.97
2022-09-10T22:47:45.857Z,6.30
2022-09-10T22:50:16.816Z,5.95
2022-09-10T22:52:46.837Z,5.65
2022-09-10T22:55:16.101Z,6.10
2022-09-10T22:57:45.281Z,6.00
2022-09-10T23:00:15.482Z,6.20
2022-09-10T23:02:46.424Z,6.55
2022-09-10T23:05:17.781Z,6.50
2022-09-10T23:10:15.688Z,6.25
2022-09-10T23:12:44.810Z,5.70
2022-09-10T23:15:13.944Z,5.75
2022-09-10T23:17:43.124Z,5.35
2022-09-10T23:20:12.433Z,5.10
2022-09-10T23:22:42.814Z,5.38
2022-09-10T23:25:11.872Z,5.57
2022-09-10T23:27:40.882Z,4.72
2022-09-10T23:30:10.754Z,4.78
2022-09-10T23:32:39.802Z,4.28
2022-09-10T23:35:09.980Z,4.25
2022-09-10T23:37:39.514Z,3.83
2022-09-10T23:40:12.012Z,4.13
2022-09-10T23:42:41.350Z,3.78
2022-09-10T23:45:11.468Z,4.20
2022-09-10T23:47:41.007Z,4.05
2022-09-10T23:50:10.448Z,4.75
2022-09-10T23:52:39.569Z,4.20
2022-09-10T23:55:10.578Z,4.30
2022-09-10T23:57:39.624Z,4.68
